Terminal Aerodrome Forecast
Issued by NWS

Current Version | Previous Version | Graphics & Text | Print | Product List | Glossary On
Versions: 1 2 3 4 5 6 7 8 9 10 11 12 13 14 15 16 17 18 19 20 21 22 23 24
000
FTUS41 KRLX 210538
TAFCKB
TAF
KCKB 210538Z 2106/2206 22004KT P6SM OVC025
     FM210700 21004KT 6SM -RADZ OVC010
     FM211200 20003KT 6SM -RADZ OVC025
     FM211500 22007KT P6SM OVC035
     FM220300 19003KT P6SM BKN045=

USA.gov is the U.S. government's official web portal to all federal, state and local government web resources and services.